Terminal Aerodrome Forecast
Issued by NWS

Current Version | Previous Version | Text Only | Print | Product List | Glossary Off
Versions: 1 2 3 4 5 6 7 8 9 10 11 12 13 14 15 16 17 18 19 20 21 22 23 24

986
FTUS41 KILN 192340
TAFLUK
TAF
KLUK 192340Z 2000/2024 19004KT P6SM SCT250
     FM200400 00000KT 5SM BR BKN015
     FM200800 00000KT 2SM BR OVC009
     FM201500 VRB03KT P6SM SCT015
     FM201800 13005KT P6SM SCT200=

USA.gov is the U.S. government's official web portal to all federal, state and local government web resources and services.